JHB weather

Senai International Airport
Johor Bahru, Johor, Malaysia

Public forecast

Using degrees Celsius for public forecast. Weather courtesy of forecast.io.

METAR (pilot weather report)

Retrieved 2019/09/22 17:00 UTC (38 minutes ago):

WMKJ 221700Z VRB01KT 3000 HZ FEW024 BKN280 26/25 Q1012

TAF (pilot weather forecast)

Retrieved 2019/09/22 12:09 UTC (5 hours ago):

TAF TAF WMKJ 221100Z 2212/2312 14005KT 4000 HZ FEW022 PROB30 TEMPO 2306/2310 TSRA FEW010 FEW016CB SCT018